FAKN

Kruger Mpumalanga International Airport

Mpumalanga, South Africa
METAR FAKN 220300Z 08005KT 9999 FEW003 14/13 Q1022 TEMPO BKN006
Observed Flight Rules
Sep-22 @ 03:00 UTC (50 minutes ago) Visual Flight Rules
Wind Visibility Clouds
80° at 5 knots 10,000+ meters
Temperatures Readings
Current 14°C / 57°F
Dewpoint 13°C / 55°F
Humidity 94%
Altimeter 30.18" Hg
Pressure 1022 hPa
Elevation 862
METAR FAKN 220300Z 08005KT 9999 FEW003 14/13 Q1022 TEMPO BKN006
Observed Flight Rules
Sep-22 @ 03:00 UTC
(50 minutes ago)
VFR
Wind Visibility
80° at 5 knots 10,000+ meters
Clouds
Temperature Dewpoint
14°C / 57°F 13°C / 55°F
Humidity Altimeter Pressure
94% 30.18" Hg 1022 hPa